createdAt,value
2019-06-02T00:02:03.647Z,6.53
2019-06-02T00:04:32.326Z,6.25
2019-06-02T00:07:00.854Z,5.50
2019-06-02T00:09:30.392Z,9.40
2019-06-02T00:11:59.109Z,6.97
2019-06-02T00:14:32.419Z,7.30
2019-06-02T00:16:57.692Z,5.80
2019-06-02T00:19:27.083Z,6.47
2019-06-02T00:21:55.640Z,5.83
2019-06-02T00:24:25.517Z,6.90
2019-06-02T00:26:54.182Z,43.23
2019-06-02T00:29:22.601Z,6.70
2019-06-02T00:31:51.147Z,8.85
2019-06-02T00:34:19.640Z,7.43
2019-06-02T00:36:48.064Z,7.08
2019-06-02T00:39:16.855Z,6.08
2019-06-02T00:41:45.281Z,6.13
2019-06-02T00:44:13.708Z,8.38
2019-06-02T00:46:42.132Z,6.47
2019-06-02T00:49:10.566Z,6.00
2019-06-02T00:51:38.991Z,7.05
2019-06-02T00:54:07.417Z,6.90
2019-06-02T00:56:35.903Z,7.33
2019-06-02T00:59:04.534Z,7.20
2019-06-02T01:01:33.834Z,7.73
2019-06-02T01:04:02.382Z,7.70
2019-06-02T01:06:32.201Z,6.40
2019-06-02T01:09:00.749Z,7.37
2019-06-02T01:11:30.254Z,7.10
2019-06-02T01:13:58.845Z,6.58
2019-06-02T01:16:28.984Z,6.87
2019-06-02T01:18:57.427Z,6.83
2019-06-02T01:21:25.854Z,7.85
2019-06-02T01:23:54.281Z,7.12
2019-06-02T01:26:22.745Z,6.90
2019-06-02T01:28:51.201Z,7.58
2019-06-02T01:31:19.689Z,7.95
2019-06-02T01:33:48.116Z,8.50
2019-06-02T01:36:16.534Z,7.80
2019-06-02T01:38:44.965Z,7.72
2019-06-02T01:41:13.394Z,8.30
2019-06-02T01:43:41.829Z,7.47
2019-06-02T01:46:10.249Z,8.08
2019-06-02T01:48:38.781Z,8.03
2019-06-02T01:51:08.181Z,7.80
2019-06-02T01:53:37.259Z,8.03
2019-06-02T01:56:05.910Z,7.35
2019-06-02T01:58:35.236Z,8.10
2019-06-02T02:01:03.864Z,7.92
2019-06-02T02:03:33.572Z,7.87
2019-06-02T02:06:02.139Z,7.95
2019-06-02T02:08:31.651Z,8.28
2019-06-02T02:11:00.253Z,8.25
2019-06-02T02:13:29.037Z,7.70
2019-06-02T02:16:01.803Z,7.87
2019-06-02T02:18:27.614Z,7.97
2019-06-02T02:20:56.030Z,7.67
2019-06-02T02:23:24.462Z,8.60
2019-06-02T02:25:52.898Z,7.80
2019-06-02T02:28:21.405Z,7.78
2019-06-02T02:30:49.830Z,7.83
2019-06-02T02:33:18.274Z,8.28
2019-06-02T02:35:47.156Z,7.83
2019-06-02T02:38:15.699Z,8.25
2019-06-02T02:40:47.062Z,8.48
2019-06-02T02:43:15.069Z,8.40
2019-06-02T02:45:44.101Z,8.58
2019-06-02T02:48:12.710Z,8.90
2019-06-02T02:50:41.958Z,9.65
2019-06-02T02:53:12.043Z,9.73
2019-06-02T02:55:42.146Z,10.47
2019-06-02T02:58:11.895Z,9.50
2019-06-02T03:00:43.822Z,9.68
2019-06-02T03:03:11.229Z,8.53
2019-06-02T03:05:40.662Z,8.93
2019-06-02T03:08:10.480Z,9.90
2019-06-02T03:10:41.292Z,9.43
2019-06-02T03:13:09.291Z,9.50
2019-06-02T03:15:38.602Z,9.43
2019-06-02T03:18:08.185Z,9.05
2019-06-02T03:20:38.392Z,9.57
2019-06-02T03:23:06.789Z,9.25
2019-06-02T03:25:36.299Z,9.95
2019-06-02T03:28:04.898Z,10.15
2019-06-02T03:30:33.334Z,10.68
2019-06-02T03:33:02.380Z,10.90
2019-06-02T03:35:31.109Z,10.70
2019-06-02T03:37:59.898Z,11.48
2019-06-02T03:40:28.460Z,10.50
2019-06-02T03:42:56.953Z,10.93
2019-06-02T03:45:25.742Z,12.00
2019-06-02T03:47:54.187Z,11.40
2019-06-02T03:50:22.610Z,10.63
2019-06-02T03:52:51.845Z,10.10
2019-06-02T03:55:20.584Z,11.30
2019-06-02T03:57:49.730Z,10.50
2019-06-02T04:00:18.809Z,10.55
2019-06-02T04:02:50.339Z,10.70
2019-06-02T04:05:17.401Z,11.70
2019-06-02T04:07:47.838Z,10.80
2019-06-02T04:10:16.433Z,10.40
2019-06-02T04:12:46.871Z,10.88
2019-06-02T04:15:15.177Z,10.13
2019-06-02T04:17:44.078Z,11.25
2019-06-02T04:20:14.909Z,11.73
2019-06-02T04:22:44.395Z,11.10
2019-06-02T04:25:13.552Z,11.33
2019-06-02T04:27:42.500Z,11.28
2019-06-02T04:30:12.796Z,10.70
2019-06-02T04:32:42.654Z,10.30
2019-06-02T04:35:11.456Z,9.40
2019-06-02T04:37:40.802Z,10.08
2019-06-02T04:40:10.624Z,9.60
2019-06-02T04:42:39.042Z,9.00
2019-06-02T04:45:08.422Z,9.28
2019-06-02T04:47:38.015Z,9.38
2019-06-02T04:50:08.564Z,8.45
2019-06-02T04:52:36.988Z,8.00
2019-06-02T04:55:05.571Z,9.13
2019-06-02T04:57:33.983Z,8.60
2019-06-02T05:00:02.415Z,8.28
2019-06-02T05:02:30.845Z,8.55
2019-06-02T05:04:59.266Z,8.58
2019-06-02T05:07:27.701Z,8.43
2019-06-02T05:09:56.722Z,8.60
2019-06-02T05:12:25.332Z,7.75
2019-06-02T05:14:53.759Z,8.43
2019-06-02T05:17:22.284Z,8.55
2019-06-02T05:19:50.781Z,8.20
2019-06-02T05:22:19.628Z,9.03
2019-06-02T05:24:48.683Z,9.40
2019-06-02T05:27:17.255Z,9.65
2019-06-02T05:29:46.750Z,9.28
2019-06-02T05:32:15.305Z,9.23
2019-06-02T05:34:44.527Z,9.80
2019-06-02T05:37:13.108Z,9.30
2019-06-02T05:39:41.526Z,9.68
2019-06-02T05:42:09.965Z,10.20
2019-06-02T05:44:38.706Z,10.50
2019-06-02T05:47:07.188Z,10.53
2019-06-02T05:49:35.873Z,9.48
2019-06-02T05:52:04.300Z,9.63
2019-06-02T05:54:32.720Z,9.15
2019-06-02T05:57:01.149Z,9.98
2019-06-02T05:59:29.569Z,9.40
2019-06-02T06:01:58.006Z,9.65
2019-06-02T06:04:26.425Z,10.45
2019-06-02T06:06:54.865Z,9.43
2019-06-02T06:09:23.288Z,9.55
2019-06-02T06:11:53.426Z,10.15
2019-06-02T06:14:22.214Z,10.32
2019-06-02T06:16:51.459Z,9.70
2019-06-02T06:19:20.096Z,9.80
2019-06-02T06:21:48.527Z,10.38
2019-06-02T06:24:16.945Z,9.95
2019-06-02T06:26:45.372Z,10.00
2019-06-02T06:29:13.816Z,11.60
2019-06-02T06:31:42.242Z,10.70
2019-06-02T06:34:10.673Z,10.82
2019-06-02T06:36:39.098Z,10.93
2019-06-02T06:39:23.514Z,10.75
2019-06-02T06:41:37.845Z,9.98
2019-06-02T06:44:06.295Z,10.43
2019-06-02T06:46:34.722Z,10.25
2019-06-02T06:49:03.310Z,10.05
2019-06-02T06:51:31.769Z,10.10
2019-06-02T06:54:00.873Z,10.80
2019-06-02T06:56:29.513Z,10.32
2019-06-02T06:58:59.032Z,9.98
2019-06-02T07:01:27.646Z,9.80
2019-06-02T07:03:56.425Z,10.08
2019-06-02T07:06:24.859Z,10.38
2019-06-02T07:08:53.295Z,9.50
2019-06-02T07:11:21.720Z,8.80
2019-06-02T07:13:50.152Z,8.30
2019-06-02T07:16:18.588Z,8.80
2019-06-02T07:18:47.020Z,9.18
2019-06-02T07:21:15.438Z,9.40
2019-06-02T07:23:43.861Z,9.90
2019-06-02T07:26:12.284Z,8.83
2019-06-02T07:28:40.726Z,9.83
2019-06-02T07:31:09.386Z,9.63
2019-06-02T07:33:37.813Z,9.78
2019-06-02T07:36:06.250Z,9.60
2019-06-02T07:38:34.679Z,10.03
2019-06-02T07:41:07.812Z,10.65
2019-06-02T07:43:33.335Z,10.53
2019-06-02T07:46:02.953Z,9.60
2019-06-02T07:48:31.587Z,11.00
2019-06-02T07:51:00.024Z,16.00
2019-06-02T07:53:28.456Z,11.18
2019-06-02T07:55:56.905Z,11.50
2019-06-02T07:58:25.405Z,11.70
2019-06-02T08:00:53.850Z,12.40
2019-06-02T08:03:22.622Z,11.33
2019-06-02T08:05:51.065Z,12.07
2019-06-02T08:08:19.497Z,12.00
2019-06-02T08:10:47.948Z,10.58
2019-06-02T08:13:16.388Z,10.95
2019-06-02T08:15:44.892Z,10.83
2019-06-02T08:18:13.333Z,11.12
2019-06-02T08:20:42.613Z,11.53
2019-06-02T08:23:11.047Z,12.23
2019-06-02T08:25:39.542Z,16.25
2019-06-02T08:28:09.145Z,11.97
2019-06-02T08:30:37.817Z,11.85
2019-06-02T08:33:07.610Z,10.50
2019-06-02T08:35:36.560Z,9.93
2019-06-02T08:38:04.992Z,11.30
2019-06-02T08:40:34.850Z,10.73
2019-06-02T08:43:03.914Z,11.37
2019-06-02T08:45:32.548Z,11.37
2019-06-02T08:48:01.951Z,10.48
2019-06-02T08:50:30.578Z,9.98
2019-06-02T08:52:59.005Z,9.75
2019-06-02T08:55:27.434Z,10.95
2019-06-02T08:57:56.154Z,9.60
2019-06-02T09:00:24.602Z,10.48
2019-06-02T09:02:53.028Z,9.30
2019-06-02T09:05:21.546Z,10.28
2019-06-02T09:07:50.063Z,10.88
2019-06-02T09:10:21.021Z,9.33
2019-06-02T09:12:48.897Z,9.30
2019-06-02T09:15:17.490Z,10.13
2019-06-02T09:17:45.922Z,9.55
2019-06-02T09:20:31.224Z,9.90
2019-06-02T09:22:44.832Z,9.00
2019-06-02T09:25:14.478Z,9.18
2019-06-02T09:27:42.980Z,9.33
2019-06-02T09:30:13.983Z,10.60
2019-06-02T09:32:42.893Z,10.13
2019-06-02T09:35:17.947Z,8.98
2019-06-02T09:37:43.717Z,8.90
2019-06-02T09:40:13.760Z,8.38
2019-06-02T09:42:42.310Z,8.35
2019-06-02T09:45:11.773Z,8.30
2019-06-02T09:47:40.213Z,8.30
2019-06-02T09:50:10.005Z,9.13
2019-06-02T09:52:53.686Z,8.85
2019-06-02T09:55:13.031Z,8.03
2019-06-02T09:57:39.880Z,8.43
2019-06-02T10:00:11.331Z,8.35
2019-06-02T10:02:39.689Z,7.97
2019-06-02T10:05:09.734Z,8.40
2019-06-02T10:07:38.373Z,7.85
2019-06-02T10:10:08.269Z,8.33
2019-06-02T10:12:36.952Z,9.18
2019-06-02T10:15:10.155Z,7.47
2019-06-02T10:17:39.327Z,7.15
2019-06-02T10:20:10.187Z,7.50
2019-06-02T10:22:39.239Z,7.45
2019-06-02T10:25:10.525Z,7.90
2019-06-02T10:27:39.176Z,6.80
2019-06-02T10:30:10.656Z,7.10
2019-06-02T10:32:39.239Z,6.67
2019-06-02T10:35:09.031Z,6.50
2019-06-02T10:37:37.717Z,6.60
2019-06-02T10:40:11.163Z,6.50
2019-06-02T10:42:39.895Z,6.10
2019-06-02T10:45:11.825Z,6.80
2019-06-02T10:47:39.368Z,6.40
2019-06-02T10:50:12.868Z,8.25
2019-06-02T10:52:38.598Z,6.10
2019-06-02T10:55:08.185Z,6.28
2019-06-02T10:57:36.685Z,6.00
2019-06-02T11:00:10.827Z,6.10
2019-06-02T11:02:39.779Z,6.30
2019-06-02T11:05:14.692Z,5.42
2019-06-02T11:07:40.661Z,5.73
2019-06-02T11:10:10.932Z,6.85
2019-06-02T11:12:39.634Z,7.00
2019-06-02T11:15:15.400Z,5.60
2019-06-02T11:17:43.857Z,5.97
2019-06-02T11:20:13.823Z,6.25
2019-06-02T11:22:42.455Z,6.22
2019-06-02T11:25:12.213Z,5.63
2019-06-02T11:27:40.674Z,5.78
2019-06-02T11:30:10.688Z,5.62
2019-06-02T11:32:39.257Z,6.40
2019-06-02T11:35:08.225Z,6.10
2019-06-02T11:37:37.540Z,5.42
2019-06-02T11:40:06.917Z,6.10
2019-06-02T11:42:35.357Z,6.37
2019-06-02T11:45:06.810Z,6.40
2019-06-02T11:47:35.234Z,6.00
2019-06-02T11:50:05.582Z,6.30
2019-06-02T11:52:34.039Z,6.00
2019-06-02T11:55:02.522Z,5.65
2019-06-02T11:57:30.957Z,6.30
2019-06-02T11:59:59.387Z,6.20
2019-06-02T12:02:27.814Z,5.70
2019-06-02T12:04:56.242Z,6.20
2019-06-02T12:07:25.383Z,5.80
2019-06-02T12:09:54.180Z,5.60
2019-06-02T12:12:26.513Z,7.33
2019-06-02T12:14:52.837Z,5.60
2019-06-02T12:17:21.271Z,5.55
2019-06-02T12:19:49.728Z,5.97
2019-06-02T12:22:20.319Z,6.00
2019-06-02T12:24:48.375Z,6.50
2019-06-02T12:27:17.362Z,6.10
2019-06-02T12:29:45.881Z,6.30
2019-06-02T12:32:15.770Z,6.62
2019-06-02T12:34:44.373Z,6.22
2019-06-02T12:37:12.816Z,6.40
2019-06-02T12:39:41.237Z,5.97
2019-06-02T12:42:09.673Z,5.50
2019-06-02T12:44:38.090Z,5.80
2019-06-02T12:47:06.524Z,5.55
2019-06-02T12:49:38.017Z,4.30
2019-06-02T12:52:09.690Z,5.20
2019-06-02T12:54:35.268Z,4.20
2019-06-02T12:57:03.716Z,3.70
2019-06-02T12:59:32.139Z,6.70
2019-06-02T13:02:00.567Z,4.72
2019-06-02T13:04:28.985Z,3.90
2019-06-02T13:06:57.419Z,4.92
2019-06-02T13:09:26.203Z,3.45
2019-06-02T13:11:57.257Z,4.20
2019-06-02T13:14:26.237Z,3.90
2019-06-02T13:16:54.827Z,4.65
2019-06-02T13:19:24.421Z,4.50
2019-06-02T13:21:53.163Z,5.30
2019-06-02T13:24:22.389Z,4.15
2019-06-02T13:26:50.965Z,3.80
2019-06-02T13:29:20.340Z,3.70
2019-06-02T13:31:48.904Z,3.70
2019-06-02T13:34:18.680Z,3.95
2019-06-02T13:36:47.453Z,4.00
2019-06-02T13:39:18.802Z,3.25
2019-06-02T13:41:46.037Z,4.80
2019-06-02T13:44:14.476Z,3.98
2019-06-02T13:46:42.930Z,3.30
2019-06-02T13:49:11.473Z,4.42
2019-06-02T13:51:40.070Z,6.50
2019-06-02T13:54:08.666Z,4.20
2019-06-02T13:56:37.127Z,4.10
2019-06-02T13:59:05.563Z,4.12
2019-06-02T14:01:33.984Z,3.70
2019-06-02T14:04:02.777Z,4.30
2019-06-02T14:06:33.932Z,3.83
2019-06-02T14:09:04.782Z,3.40
2019-06-02T14:11:33.279Z,4.15
2019-06-02T14:14:01.718Z,3.62
2019-06-02T14:16:30.754Z,3.20
2019-06-02T14:18:59.356Z,4.03
2019-06-02T14:21:29.039Z,3.93
2019-06-02T14:23:57.985Z,3.45
2019-06-02T14:26:27.228Z,4.00
2019-06-02T14:28:55.833Z,3.83
2019-06-02T14:31:25.342Z,5.37
2019-06-02T14:33:54.047Z,4.30
2019-06-02T14:36:23.524Z,4.70
2019-06-02T14:38:52.212Z,3.50
2019-06-02T14:41:21.619Z,3.50
2019-06-02T14:43:50.233Z,3.52
2019-06-02T14:46:18.671Z,4.00
2019-06-02T14:48:47.102Z,3.10
2019-06-02T14:51:15.549Z,3.87
2019-06-02T14:53:49.547Z,3.42
2019-06-02T14:56:16.003Z,4.28
2019-06-02T14:58:44.292Z,3.22
2019-06-02T15:01:12.721Z,4.78
2019-06-02T15:03:41.225Z,6.42
2019-06-02T15:06:09.675Z,8.15
2019-06-02T15:08:38.110Z,4.90
2019-06-02T15:11:06.797Z,3.50
2019-06-02T15:13:35.222Z,3.40
2019-06-02T15:16:03.646Z,7.10
2019-06-02T15:18:33.014Z,6.05
2019-06-02T15:21:01.573Z,8.68
2019-06-02T15:23:31.222Z,5.20
2019-06-02T15:26:00.029Z,4.65
2019-06-02T15:28:29.650Z,7.53
2019-06-02T15:30:58.257Z,8.45
2019-06-02T15:33:26.695Z,9.53
2019-06-02T15:35:55.130Z,4.30
2019-06-02T15:38:23.548Z,4.75
2019-06-02T15:40:51.969Z,4.23
2019-06-02T15:43:20.392Z,4.58
2019-06-02T15:45:48.820Z,4.05
2019-06-02T15:48:17.245Z,3.22
2019-06-02T15:50:45.684Z,4.00
2019-06-02T15:53:14.113Z,4.05
2019-06-02T15:55:42.540Z,6.97
2019-06-02T15:58:10.962Z,6.05
2019-06-02T16:00:39.735Z,3.70
2019-06-02T16:03:08.292Z,6.12
2019-06-02T16:05:38.049Z,7.70
2019-06-02T16:08:06.636Z,4.10
2019-06-02T16:10:36.380Z,3.52
2019-06-02T16:13:05.033Z,4.40
2019-06-02T16:15:34.960Z,2.30
2019-06-02T16:18:03.718Z,2.70
2019-06-02T16:20:33.757Z,4.50
2019-06-02T16:23:02.657Z,3.00
2019-06-02T16:25:31.601Z,4.90
2019-06-02T16:28:00.146Z,4.00
2019-06-02T16:30:28.577Z,7.95
2019-06-02T16:32:57.033Z,10.90
2019-06-02T16:35:25.494Z,3.80
2019-06-02T16:37:53.925Z,4.13
2019-06-02T16:40:22.430Z,4.60
2019-06-02T16:42:50.866Z,3.22
2019-06-02T16:45:19.707Z,2.60
2019-06-02T16:47:48.137Z,4.00
2019-06-02T16:50:16.735Z,3.90
2019-06-02T16:52:46.424Z,3.10
2019-06-02T16:55:15.228Z,3.57
2019-06-02T16:57:43.953Z,4.90
2019-06-02T17:00:13.107Z,5.10
2019-06-02T17:02:41.525Z,5.35
2019-06-02T17:05:10.138Z,5.45
2019-06-02T17:07:39.638Z,3.60
2019-06-02T17:10:08.423Z,5.20
2019-06-02T17:12:38.085Z,2.87
2019-06-02T17:15:08.208Z,3.90
2019-06-02T17:17:47.808Z,5.83
2019-06-02T17:20:08.694Z,5.00
2019-06-02T17:22:37.209Z,4.05
2019-06-02T17:25:13.182Z,6.05
2019-06-02T17:27:43.050Z,4.70
2019-06-02T17:30:08.237Z,6.10
2019-06-02T17:32:37.873Z,5.83
2019-06-02T17:35:08.012Z,6.17
2019-06-02T17:37:36.747Z,5.50
2019-06-02T17:40:08.655Z,5.95
2019-06-02T17:42:37.093Z,7.00
2019-06-02T17:45:06.269Z,10.38
2019-06-02T17:47:34.699Z,7.13
2019-06-02T17:50:04.872Z,11.27
2019-06-02T17:52:33.559Z,10.32
2019-06-02T17:55:01.995Z,8.05
2019-06-02T17:57:30.422Z,7.85
2019-06-02T17:59:58.904Z,8.90
2019-06-02T18:02:28.108Z,9.68
2019-06-02T18:04:56.552Z,11.00
2019-06-02T18:07:24.994Z,11.85
2019-06-02T18:09:53.444Z,13.43
2019-06-02T18:12:21.884Z,19.73
2019-06-02T18:14:50.912Z,16.87
2019-06-02T18:17:19.552Z,12.58
2019-06-02T18:19:48.379Z,10.70
2019-06-02T18:22:18.020Z,9.10
2019-06-02T18:24:47.705Z,9.33
2019-06-02T18:27:16.317Z,10.93
2019-06-02T18:29:46.802Z,8.05
2019-06-02T18:32:14.912Z,9.83
2019-06-02T18:34:44.331Z,7.85
2019-06-02T18:37:12.841Z,10.63
2019-06-02T18:39:41.360Z,11.78
2019-06-02T18:42:09.800Z,14.28
2019-06-02T18:44:38.306Z,13.55
2019-06-02T18:47:06.740Z,13.25
2019-06-02T18:49:35.250Z,12.90
2019-06-02T18:52:07.662Z,13.48
2019-06-02T18:54:33.967Z,15.88
2019-06-02T18:57:02.828Z,16.77
2019-06-02T18:59:31.428Z,14.60
2019-06-02T19:01:59.904Z,12.45
2019-06-02T19:04:28.334Z,10.28
2019-06-02T19:06:56.783Z,9.53
2019-06-02T19:09:25.476Z,7.70
2019-06-02T19:11:54.662Z,7.70
2019-06-02T19:14:23.294Z,7.33
2019-06-02T19:16:51.885Z,7.10
2019-06-02T19:19:20.430Z,9.78
2019-06-02T19:21:50.215Z,12.88
2019-06-02T19:24:19.029Z,14.50
2019-06-02T19:26:48.593Z,9.70
2019-06-02T19:29:17.427Z,10.50
2019-06-02T19:31:45.973Z,14.70
2019-06-02T19:34:14.397Z,15.72
2019-06-02T19:36:42.840Z,14.10
2019-06-02T19:39:11.266Z,7.85
2019-06-02T19:41:39.718Z,8.00
2019-06-02T19:44:08.150Z,6.85
2019-06-02T19:46:36.582Z,7.40
2019-06-02T19:49:05.188Z,5.70
2019-06-02T19:51:33.690Z,5.90
2019-06-02T19:54:02.163Z,5.90
2019-06-02T19:56:43.090Z,5.92
2019-06-02T19:59:00.946Z,6.50
2019-06-02T20:01:29.547Z,6.37
2019-06-02T20:03:57.987Z,6.90
2019-06-02T20:06:26.397Z,7.45
2019-06-02T20:08:55.862Z,5.92
2019-06-02T20:11:24.451Z,6.55
2019-06-02T20:13:53.287Z,6.67
2019-06-02T20:16:22.119Z,6.28
2019-06-02T20:18:50.549Z,6.35
2019-06-02T20:21:18.969Z,6.10
2019-06-02T20:23:47.405Z,5.90
2019-06-02T20:26:16.150Z,6.40
2019-06-02T20:28:44.581Z,6.40
2019-06-02T20:31:13.003Z,6.03
2019-06-02T20:33:41.444Z,6.70
2019-06-02T20:36:09.869Z,7.00
2019-06-02T20:38:38.305Z,7.00
2019-06-02T20:41:08.963Z,7.00
2019-06-02T20:43:36.879Z,7.83
2019-06-02T20:46:06.208Z,7.62
2019-06-02T20:48:34.825Z,6.90
2019-06-02T20:51:03.696Z,6.63
2019-06-02T20:53:32.421Z,6.30
2019-06-02T20:56:02.688Z,6.00
2019-06-02T20:58:31.000Z,6.05
2019-06-02T21:01:01.081Z,12.58
2019-06-02T21:03:29.898Z,8.03
2019-06-02T21:05:58.762Z,7.50
2019-06-02T21:08:27.438Z,6.83
2019-06-02T21:10:57.217Z,6.33
2019-06-02T21:13:25.784Z,5.40
2019-06-02T21:15:54.241Z,6.15
2019-06-02T21:18:22.668Z,6.77
2019-06-02T21:20:51.105Z,6.85
2019-06-02T21:23:19.532Z,6.10
2019-06-02T21:25:47.961Z,5.90
2019-06-02T21:28:16.380Z,5.85
2019-06-02T21:30:44.977Z,6.00
2019-06-02T21:33:13.407Z,5.70
2019-06-02T21:35:41.846Z,6.30
2019-06-02T21:38:10.313Z,6.00
2019-06-02T21:40:38.851Z,5.85
2019-06-02T21:43:08.702Z,7.58
2019-06-02T21:45:37.444Z,5.75
2019-06-02T21:48:06.192Z,6.62
2019-06-02T21:50:36.366Z,6.10
2019-06-02T21:53:04.803Z,5.72
2019-06-02T21:55:34.583Z,5.90
2019-06-02T21:58:05.731Z,5.55
2019-06-02T22:00:50.861Z,5.33
2019-06-02T22:03:19.284Z,5.60
2019-06-02T22:05:47.738Z,5.10
2019-06-02T22:08:16.184Z,5.65
2019-06-02T22:10:44.658Z,5.60
2019-06-02T22:13:13.089Z,6.80
2019-06-02T22:15:41.517Z,5.40
2019-06-02T22:18:10.261Z,6.20
2019-06-02T22:20:38.882Z,6.33
2019-06-02T22:23:07.458Z,5.78
2019-06-02T22:25:35.972Z,5.77
2019-06-02T22:28:15.898Z,6.12
2019-06-02T22:30:34.578Z,5.80
2019-06-02T22:33:03.973Z,5.35
2019-06-02T22:35:34.237Z,5.40
2019-06-02T22:38:02.680Z,4.97
2019-06-02T22:40:32.341Z,5.50
2019-06-02T22:43:00.786Z,5.40
2019-06-02T22:45:36.539Z,5.50
2019-06-02T22:48:08.104Z,7.05
2019-06-02T22:50:37.471Z,5.80
2019-06-02T22:53:09.296Z,5.50
2019-06-02T22:55:38.109Z,5.57
2019-06-02T22:58:11.224Z,5.97
2019-06-02T23:00:48.540Z,5.47
2019-06-02T23:03:18.146Z,5.40
2019-06-02T23:05:47.174Z,5.27
2019-06-02T23:08:16.429Z,5.87
2019-06-02T23:10:44.989Z,6.00
2019-06-02T23:13:14.762Z,5.17
2019-06-02T23:15:43.367Z,5.28
2019-06-02T23:18:13.049Z,5.75
2019-06-02T23:20:41.720Z,5.80
2019-06-02T23:23:11.156Z,6.15
2019-06-02T23:25:39.792Z,5.42
2019-06-02T23:28:09.194Z,5.57
2019-06-02T23:30:38.007Z,5.30
2019-06-02T23:33:07.558Z,5.70
2019-06-02T23:35:36.218Z,5.30
2019-06-02T23:38:05.408Z,5.80
2019-06-02T23:40:33.904Z,5.75
2019-06-02T23:43:02.337Z,5.83
2019-06-02T23:45:30.764Z,5.60
2019-06-02T23:47:59.549Z,5.92
2019-06-02T23:50:31.098Z,5.60
2019-06-02T23:52:59.802Z,5.10
2019-06-02T23:55:28.852Z,5.60
2019-06-02T23:57:57.657Z,5.37
